sensor_id;sensor_type;location;lat;lon;timestamp;temperature;humidity
40123;DHT22;25832;45.490;4.912;2023-07-31T00:00:50;15.10;99.90
40123;DHT22;25832;45.490;4.912;2023-07-31T00:03:15;15.00;99.90
40123;DHT22;25832;45.490;4.912;2023-07-31T00:05:41;15.00;99.90
40123;DHT22;25832;45.490;4.912;2023-07-31T00:08:07;14.90;99.90
40123;DHT22;25832;45.490;4.912;2023-07-31T00:10:32;14.80;99.90
40123;DHT22;25832;45.490;4.912;2023-07-31T00:12:59;14.80;99.90
40123;DHT22;25832;45.490;4.912;2023-07-31T00:15:24;14.70;99.90
40123;DHT22;25832;45.490;4.912;2023-07-31T00:17:50;14.70;99.90
40123;DHT22;25832;45.490;4.912;2023-07-31T00:20:16;14.80;99.90
40123;DHT22;25832;45.490;4.912;2023-07-31T00:22:41;14.80;99.90
40123;DHT22;25832;45.490;4.912;2023-07-31T00:25:07;14.80;99.90
40123;DHT22;25832;45.490;4.912;2023-07-31T00:27:33;14.80;99.90
40123;DHT22;25832;45.490;4.912;2023-07-31T00:29:58;14.70;99.90
40123;DHT22;25832;45.490;4.912;2023-07-31T00:32:24;14.70;99.90
40123;DHT22;25832;45.490;4.912;2023-07-31T00:34:50;14.60;99.90
40123;DHT22;25832;45.490;4.912;2023-07-31T00:37:15;14.60;99.90
40123;DHT22;25832;45.490;4.912;2023-07-31T00:39:41;14.50;99.90
40123;DHT22;25832;45.490;4.912;2023-07-31T00:42:07;14.50;99.90
40123;DHT22;25832;45.490;4.912;2023-07-31T00:44:33;14.50;99.90
40123;DHT22;25832;45.490;4.912;2023-07-31T00:46:58;14.50;99.90
40123;DHT22;25832;45.490;4.912;2023-07-31T00:49:25;14.50;99.90
40123;DHT22;25832;45.490;4.912;2023-07-31T00:51:52;14.50;99.90
40123;DHT22;25832;45.490;4.912;2023-07-31T00:54:18;14.40;99.90
40123;DHT22;25832;45.490;4.912;2023-07-31T00:56:45;14.40;99.90
40123;DHT22;25832;45.490;4.912;2023-07-31T00:59:11;14.40;99.90
40123;DHT22;25832;45.490;4.912;2023-07-31T01:01:37;14.50;99.90
40123;DHT22;25832;45.490;4.912;2023-07-31T01:04:03;14.40;99.90
40123;DHT22;25832;45.490;4.912;2023-07-31T01:06:48;14.50;99.90
40123;DHT22;25832;45.490;4.912;2023-07-31T01:09:49;14.40;99.90
40123;DHT22;25832;45.490;4.912;2023-07-31T01:12:18;14.40;99.90
40123;DHT22;25832;45.490;4.912;2023-07-31T01:17:26;14.30;99.90
40123;DHT22;25832;45.490;4.912;2023-07-31T01:19:54;14.30;99.90
40123;DHT22;25832;45.490;4.912;2023-07-31T01:28:16;14.20;99.90
40123;DHT22;25832;45.490;4.912;2023-07-31T01:30:48;14.10;99.90
40123;DHT22;25832;45.490;4.912;2023-07-31T01:33:15;14.20;99.90
40123;DHT22;25832;45.490;4.912;2023-07-31T01:35:44;14.10;99.90
40123;DHT22;25832;45.490;4.912;2023-07-31T01:38:10;14.10;99.90
40123;DHT22;25832;45.490;4.912;2023-07-31T01:40:36;14.00;99.90
40123;DHT22;25832;45.490;4.912;2023-07-31T01:43:02;14.00;99.90
40123;DHT22;25832;45.490;4.912;2023-07-31T01:45:27;14.00;99.90
40123;DHT22;25832;45.490;4.912;2023-07-31T01:47:53;14.00;99.90
40123;DHT22;25832;45.490;4.912;2023-07-31T01:50:18;14.00;99.90
40123;DHT22;25832;45.490;4.912;2023-07-31T01:52:44;14.00;99.90
40123;DHT22;25832;45.490;4.912;2023-07-31T01:55:10;14.00;99.90
40123;DHT22;25832;45.490;4.912;2023-07-31T01:57:36;14.00;99.90
40123;DHT22;25832;45.490;4.912;2023-07-31T02:00:03;14.00;99.90
40123;DHT22;25832;45.490;4.912;2023-07-31T02:02:28;13.90;99.90
40123;DHT22;25832;45.490;4.912;2023-07-31T02:04:54;13.90;99.90
40123;DHT22;25832;45.490;4.912;2023-07-31T02:07:20;13.80;99.90
40123;DHT22;25832;45.490;4.912;2023-07-31T02:09:45;13.80;99.90
40123;DHT22;25832;45.490;4.912;2023-07-31T02:12:13;13.80;99.90
40123;DHT22;25832;45.490;4.912;2023-07-31T02:14:40;13.70;99.90
40123;DHT22;25832;45.490;4.912;2023-07-31T02:17:06;13.70;99.90
40123;DHT22;25832;45.490;4.912;2023-07-31T02:19:31;13.70;99.90
40123;DHT22;25832;45.490;4.912;2023-07-31T02:21:57;13.70;99.90
40123;DHT22;25832;45.490;4.912;2023-07-31T02:24:25;13.70;99.90
40123;DHT22;25832;45.490;4.912;2023-07-31T02:26:50;13.70;99.90
40123;DHT22;25832;45.490;4.912;2023-07-31T02:29:16;13.60;99.90
40123;DHT22;25832;45.490;4.912;2023-07-31T02:31:41;13.60;99.90
40123;DHT22;25832;45.490;4.912;2023-07-31T02:34:07;13.60;99.90
40123;DHT22;25832;45.490;4.912;2023-07-31T02:36:33;13.50;99.90
40123;DHT22;25832;45.490;4.912;2023-07-31T02:38:58;13.50;99.90
40123;DHT22;25832;45.490;4.912;2023-07-31T02:41:24;13.40;99.90
40123;DHT22;25832;45.490;4.912;2023-07-31T02:43:50;13.40;99.90
40123;DHT22;25832;45.490;4.912;2023-07-31T02:46:15;13.40;99.90
40123;DHT22;25832;45.490;4.912;2023-07-31T02:48:41;13.40;99.90
40123;DHT22;25832;45.490;4.912;2023-07-31T02:51:07;13.40;99.90
40123;DHT22;25832;45.490;4.912;2023-07-31T02:53:32;13.40;99.90
40123;DHT22;25832;45.490;4.912;2023-07-31T02:55:58;13.50;99.90
40123;DHT22;25832;45.490;4.912;2023-07-31T02:58:23;13.50;99.90
40123;DHT22;25832;45.490;4.912;2023-07-31T03:00:49;13.60;99.90
40123;DHT22;25832;45.490;4.912;2023-07-31T03:03:15;13.60;99.90
40123;DHT22;25832;45.490;4.912;2023-07-31T03:05:40;13.60;99.90
40123;DHT22;25832;45.490;4.912;2023-07-31T03:08:06;13.60;99.90
40123;DHT22;25832;45.490;4.912;2023-07-31T03:10:32;13.60;99.90
40123;DHT22;25832;45.490;4.912;2023-07-31T03:12:58;13.50;99.90
40123;DHT22;25832;45.490;4.912;2023-07-31T03:15:23;13.50;99.90
40123;DHT22;25832;45.490;4.912;2023-07-31T03:17:49;13.50;99.90
40123;DHT22;25832;45.490;4.912;2023-07-31T03:20:14;13.40;99.90
40123;DHT22;25832;45.490;4.912;2023-07-31T03:22:40;13.40;99.90
40123;DHT22;25832;45.490;4.912;2023-07-31T03:25:06;13.40;99.90
40123;DHT22;25832;45.490;4.912;2023-07-31T03:27:32;13.40;99.90
40123;DHT22;25832;45.490;4.912;2023-07-31T03:29:59;13.40;99.90
40123;DHT22;25832;45.490;4.912;2023-07-31T03:32:26;13.40;99.90
40123;DHT22;25832;45.490;4.912;2023-07-31T03:34:52;13.30;99.90
40123;DHT22;25832;45.490;4.912;2023-07-31T03:37:17;13.30;99.90
40123;DHT22;25832;45.490;4.912;2023-07-31T03:39:43;13.20;99.90
40123;DHT22;25832;45.490;4.912;2023-07-31T03:42:08;13.20;99.90
40123;DHT22;25832;45.490;4.912;2023-07-31T03:44:34;13.20;99.90
40123;DHT22;25832;45.490;4.912;2023-07-31T03:47:00;13.20;99.90
40123;DHT22;25832;45.490;4.912;2023-07-31T03:49:25;13.10;99.90
40123;DHT22;25832;45.490;4.912;2023-07-31T03:51:51;13.10;99.90
40123;DHT22;25832;45.490;4.912;2023-07-31T03:54:17;13.10;99.90
40123;DHT22;25832;45.490;4.912;2023-07-31T03:56:42;13.10;99.90
40123;DHT22;25832;45.490;4.912;2023-07-31T03:59:08;13.10;99.90
40123;DHT22;25832;45.490;4.912;2023-07-31T04:01:33;13.00;99.90
40123;DHT22;25832;45.490;4.912;2023-07-31T04:03:59;13.00;99.90
40123;DHT22;25832;45.490;4.912;2023-07-31T04:06:25;13.00;99.90
40123;DHT22;25832;45.490;4.912;2023-07-31T04:08:50;13.10;99.90
40123;DHT22;25832;45.490;4.912;2023-07-31T04:11:16;13.00;99.90
40123;DHT22;25832;45.490;4.912;2023-07-31T04:13:42;12.90;99.90
40123;DHT22;25832;45.490;4.912;2023-07-31T04:16:08;12.90;99.90
40123;DHT22;25832;45.490;4.912;2023-07-31T04:18:34;12.90;99.90
40123;DHT22;25832;45.490;4.912;2023-07-31T04:20:59;13.00;99.90
40123;DHT22;25832;45.490;4.912;2023-07-31T04:23:26;12.90;99.90
40123;DHT22;25832;45.490;4.912;2023-07-31T04:25:52;12.90;99.90
40123;DHT22;25832;45.490;4.912;2023-07-31T04:28:18;12.90;99.90
40123;DHT22;25832;45.490;4.912;2023-07-31T04:30:43;12.90;99.90
40123;DHT22;25832;45.490;4.912;2023-07-31T04:33:09;12.90;99.90
40123;DHT22;25832;45.490;4.912;2023-07-31T04:35:35;12.90;99.90
40123;DHT22;25832;45.490;4.912;2023-07-31T04:38:00;12.90;99.90
40123;DHT22;25832;45.490;4.912;2023-07-31T04:40:26;13.00;99.90
40123;DHT22;25832;45.490;4.912;2023-07-31T04:42:52;13.00;99.90
40123;DHT22;25832;45.490;4.912;2023-07-31T04:45:17;13.00;99.90
40123;DHT22;25832;45.490;4.912;2023-07-31T04:47:43;13.00;99.90
40123;DHT22;25832;45.490;4.912;2023-07-31T04:50:09;13.00;99.90
40123;DHT22;25832;45.490;4.912;2023-07-31T04:52:35;13.00;99.90
40123;DHT22;25832;45.490;4.912;2023-07-31T04:55:00;12.90;99.90
40123;DHT22;25832;45.490;4.912;2023-07-31T04:57:26;12.90;99.90
40123;DHT22;25832;45.490;4.912;2023-07-31T04:59:52;12.90;99.90
40123;DHT22;25832;45.490;4.912;2023-07-31T05:02:17;12.90;99.90
40123;DHT22;25832;45.490;4.912;2023-07-31T05:04:43;12.90;99.90
40123;DHT22;25832;45.490;4.912;2023-07-31T05:07:09;12.90;99.90
40123;DHT22;25832;45.490;4.912;2023-07-31T05:09:34;13.00;99.90
40123;DHT22;25832;45.490;4.912;2023-07-31T05:12:00;13.00;99.90
40123;DHT22;25832;45.490;4.912;2023-07-31T05:14:26;13.10;99.90
40123;DHT22;25832;45.490;4.912;2023-07-31T05:16:52;13.10;99.90
40123;DHT22;25832;45.490;4.912;2023-07-31T05:19:18;13.10;99.90
40123;DHT22;25832;45.490;4.912;2023-07-31T05:21:43;13.20;99.90
40123;DHT22;25832;45.490;4.912;2023-07-31T05:24:10;13.40;99.90
40123;DHT22;25832;45.490;4.912;2023-07-31T05:26:36;13.60;99.90
40123;DHT22;25832;45.490;4.912;2023-07-31T05:29:03;13.80;99.90
40123;DHT22;25832;45.490;4.912;2023-07-31T05:31:29;14.00;99.90
40123;DHT22;25832;45.490;4.912;2023-07-31T05:33:54;14.10;99.90
40123;DHT22;25832;45.490;4.912;2023-07-31T05:36:20;14.30;99.90
40123;DHT22;25832;45.490;4.912;2023-07-31T05:38:46;14.50;99.90
40123;DHT22;25832;45.490;4.912;2023-07-31T05:41:14;14.60;99.90
40123;DHT22;25832;45.490;4.912;2023-07-31T05:43:40;14.80;99.90
40123;DHT22;25832;45.490;4.912;2023-07-31T05:46:06;15.10;99.90
40123;DHT22;25832;45.490;4.912;2023-07-31T05:48:32;15.30;99.90
40123;DHT22;25832;45.490;4.912;2023-07-31T05:50:59;15.60;99.90
40123;DHT22;25832;45.490;4.912;2023-07-31T05:53:25;15.80;99.90
40123;DHT22;25832;45.490;4.912;2023-07-31T05:55:51;15.90;99.90
40123;DHT22;25832;45.490;4.912;2023-07-31T05:58:16;16.00;99.90
40123;DHT22;25832;45.490;4.912;2023-07-31T06:00:42;16.10;99.90
40123;DHT22;25832;45.490;4.912;2023-07-31T06:03:08;16.30;99.90
40123;DHT22;25832;45.490;4.912;2023-07-31T06:05:33;16.50;99.90
40123;DHT22;25832;45.490;4.912;2023-07-31T06:07:59;16.80;99.90
40123;DHT22;25832;45.490;4.912;2023-07-31T06:10:25;17.10;99.90
40123;DHT22;25832;45.490;4.912;2023-07-31T06:12:51;17.50;99.90
40123;DHT22;25832;45.490;4.912;2023-07-31T06:15:16;17.90;99.90
40123;DHT22;25832;45.490;4.912;2023-07-31T06:17:44;18.10;99.90
40123;DHT22;25832;45.490;4.912;2023-07-31T06:20:10;18.30;99.90
40123;DHT22;25832;45.490;4.912;2023-07-31T06:22:36;18.40;99.90
40123;DHT22;25832;45.490;4.912;2023-07-31T06:25:01;18.50;99.90
40123;DHT22;25832;45.490;4.912;2023-07-31T06:27:27;18.70;99.90
40123;DHT22;25832;45.490;4.912;2023-07-31T06:29:53;18.90;99.90
40123;DHT22;25832;45.490;4.912;2023-07-31T06:32:18;18.90;99.90
40123;DHT22;25832;45.490;4.912;2023-07-31T06:34:44;19.00;99.90
40123;DHT22;25832;45.490;4.912;2023-07-31T06:37:09;19.20;99.90
40123;DHT22;25832;45.490;4.912;2023-07-31T06:39:35;19.40;99.90
40123;DHT22;25832;45.490;4.912;2023-07-31T06:42:01;19.70;99.90
40123;DHT22;25832;45.490;4.912;2023-07-31T06:44:26;19.80;99.70
40123;DHT22;25832;45.490;4.912;2023-07-31T06:46:52;19.90;99.90
40123;DHT22;25832;45.490;4.912;2023-07-31T06:49:18;20.00;99.90
40123;DHT22;25832;45.490;4.912;2023-07-31T06:51:43;20.10;99.90
40123;DHT22;25832;45.490;4.912;2023-07-31T06:54:09;20.40;98.80
40123;DHT22;25832;45.490;4.912;2023-07-31T06:56:35;20.60;98.80
40123;DHT22;25832;45.490;4.912;2023-07-31T06:59:01;20.80;97.70
40123;DHT22;25832;45.490;4.912;2023-07-31T07:01:26;20.90;97.90
40123;DHT22;25832;45.490;4.912;2023-07-31T07:03:54;20.70;98.00
40123;DHT22;25832;45.490;4.912;2023-07-31T07:06:19;20.80;98.70
40123;DHT22;25832;45.490;4.912;2023-07-31T07:08:45;20.80;97.30
40123;DHT22;25832;45.490;4.912;2023-07-31T07:11:11;20.70;97.90
40123;DHT22;25832;45.490;4.912;2023-07-31T07:13:36;20.70;98.10
40123;DHT22;25832;45.490;4.912;2023-07-31T07:16:02;20.60;97.30
40123;DHT22;25832;45.490;4.912;2023-07-31T07:18:28;20.60;97.80
40123;DHT22;25832;45.490;4.912;2023-07-31T07:20:54;20.60;97.70
40123;DHT22;25832;45.490;4.912;2023-07-31T07:23:20;20.70;98.20
40123;DHT22;25832;45.490;4.912;2023-07-31T07:25:46;21.00;97.90
40123;DHT22;25832;45.490;4.912;2023-07-31T07:30:38;21.70;97.10
40123;DHT22;25832;45.490;4.912;2023-07-31T07:33:04;21.70;97.40
40123;DHT22;25832;45.490;4.912;2023-07-31T07:35:32;21.90;96.80
40123;DHT22;25832;45.490;4.912;2023-07-31T07:37:58;22.00;96.20
40123;DHT22;25832;45.490;4.912;2023-07-31T07:40:23;22.20;95.40
40123;DHT22;25832;45.490;4.912;2023-07-31T07:42:50;22.50;94.80
40123;DHT22;25832;45.490;4.912;2023-07-31T07:45:15;22.60;95.10
40123;DHT22;25832;45.490;4.912;2023-07-31T07:47:41;22.50;95.30
40123;DHT22;25832;45.490;4.912;2023-07-31T07:50:08;22.50;95.10
40123;DHT22;25832;45.490;4.912;2023-07-31T07:52:33;22.50;96.40
40123;DHT22;25832;45.490;4.912;2023-07-31T07:54:59;22.60;94.60
40123;DHT22;25832;45.490;4.912;2023-07-31T07:57:25;22.60;94.40
40123;DHT22;25832;45.490;4.912;2023-07-31T07:59:51;22.50;95.10
40123;DHT22;25832;45.490;4.912;2023-07-31T08:02:17;22.40;94.30
40123;DHT22;25832;45.490;4.912;2023-07-31T08:04:42;22.30;94.30
40123;DHT22;25832;45.490;4.912;2023-07-31T08:07:11;22.30;93.30
40123;DHT22;25832;45.490;4.912;2023-07-31T08:09:37;22.40;91.80
40123;DHT22;25832;45.490;4.912;2023-07-31T08:12:03;22.50;93.30
40123;DHT22;25832;45.490;4.912;2023-07-31T08:14:29;22.40;90.70
40123;DHT22;25832;45.490;4.912;2023-07-31T08:16:55;22.50;92.20
40123;DHT22;25832;45.490;4.912;2023-07-31T08:19:21;22.50;91.80
40123;DHT22;25832;45.490;4.912;2023-07-31T08:21:47;22.50;91.50
40123;DHT22;25832;45.490;4.912;2023-07-31T08:24:12;22.60;91.00
40123;DHT22;25832;45.490;4.912;2023-07-31T08:26:38;22.60;91.20
40123;DHT22;25832;45.490;4.912;2023-07-31T08:29:04;22.50;90.70
40123;DHT22;25832;45.490;4.912;2023-07-31T08:31:29;22.50;91.10
40123;DHT22;25832;45.490;4.912;2023-07-31T08:33:56;22.70;91.40
40123;DHT22;25832;45.490;4.912;2023-07-31T08:36:22;22.90;90.80
40123;DHT22;25832;45.490;4.912;2023-07-31T08:38:47;23.00;90.90
40123;DHT22;25832;45.490;4.912;2023-07-31T08:41:13;23.10;90.20
40123;DHT22;25832;45.490;4.912;2023-07-31T08:43:39;22.90;90.60
40123;DHT22;25832;45.490;4.912;2023-07-31T08:46:05;22.90;90.40
40123;DHT22;25832;45.490;4.912;2023-07-31T08:48:32;23.00;91.40
40123;DHT22;25832;45.490;4.912;2023-07-31T08:50:58;23.10;90.60
40123;DHT22;25832;45.490;4.912;2023-07-31T08:53:23;23.20;90.20
40123;DHT22;25832;45.490;4.912;2023-07-31T08:55:50;23.50;88.50
40123;DHT22;25832;45.490;4.912;2023-07-31T08:58:18;23.70;88.60
40123;DHT22;25832;45.490;4.912;2023-07-31T09:00:46;23.90;89.30
40123;DHT22;25832;45.490;4.912;2023-07-31T09:03:17;23.80;87.70
40123;DHT22;25832;45.490;4.912;2023-07-31T09:05:45;23.80;86.50
40123;DHT22;25832;45.490;4.912;2023-07-31T09:08:12;23.80;88.70
40123;DHT22;25832;45.490;4.912;2023-07-31T09:10:42;24.10;87.50
40123;DHT22;25832;45.490;4.912;2023-07-31T09:13:08;24.20;87.30
40123;DHT22;25832;45.490;4.912;2023-07-31T09:15:34;24.30;86.20
40123;DHT22;25832;45.490;4.912;2023-07-31T09:18:02;24.30;86.80
40123;DHT22;25832;45.490;4.912;2023-07-31T09:20:27;24.20;88.40
40123;DHT22;25832;45.490;4.912;2023-07-31T09:22:55;24.30;87.70
40123;DHT22;25832;45.490;4.912;2023-07-31T09:28:13;24.00;90.00
40123;DHT22;25832;45.490;4.912;2023-07-31T09:31:05;23.90;87.30
40123;DHT22;25832;45.490;4.912;2023-07-31T09:33:30;23.90;90.00
40123;DHT22;25832;45.490;4.912;2023-07-31T09:35:58;23.80;87.70
40123;DHT22;25832;45.490;4.912;2023-07-31T09:38:24;23.90;89.00
40123;DHT22;25832;45.490;4.912;2023-07-31T09:40:50;24.10;89.00
40123;DHT22;25832;45.490;4.912;2023-07-31T09:43:21;24.30;88.00
40123;DHT22;25832;45.490;4.912;2023-07-31T09:45:47;24.50;87.80
40123;DHT22;25832;45.490;4.912;2023-07-31T09:48:15;24.60;86.70
40123;DHT22;25832;45.490;4.912;2023-07-31T09:50:46;24.70;88.20
40123;DHT22;25832;45.490;4.912;2023-07-31T09:53:12;24.80;86.00
40123;DHT22;25832;45.490;4.912;2023-07-31T09:55:39;25.00;85.00
40123;DHT22;25832;45.490;4.912;2023-07-31T09:58:08;25.10;85.80
40123;DHT22;25832;45.490;4.912;2023-07-31T10:00:34;24.90;86.40
40123;DHT22;25832;45.490;4.912;2023-07-31T10:03:02;24.70;85.20
40123;DHT22;25832;45.490;4.912;2023-07-31T10:05:34;24.60;86.60
40123;DHT22;25832;45.490;4.912;2023-07-31T10:08:00;24.60;86.20
40123;DHT22;25832;45.490;4.912;2023-07-31T10:10:27;24.90;87.70
40123;DHT22;25832;45.490;4.912;2023-07-31T10:12:53;25.10;84.00
40123;DHT22;25832;45.490;4.912;2023-07-31T10:15:20;25.00;83.80
40123;DHT22;25832;45.490;4.912;2023-07-31T10:17:49;24.90;86.20
40123;DHT22;25832;45.490;4.912;2023-07-31T10:20:16;24.90;85.90
40123;DHT22;25832;45.490;4.912;2023-07-31T10:22:43;24.80;85.60
40123;DHT22;25832;45.490;4.912;2023-07-31T10:25:09;24.70;87.50
40123;DHT22;25832;45.490;4.912;2023-07-31T10:27:36;24.80;85.70
40123;DHT22;25832;45.490;4.912;2023-07-31T10:30:05;25.00;86.70
40123;DHT22;25832;45.490;4.912;2023-07-31T10:32:33;25.20;83.10
40123;DHT22;25832;45.490;4.912;2023-07-31T10:35:01;25.30;84.20
40123;DHT22;25832;45.490;4.912;2023-07-31T10:37:35;25.60;86.20
40123;DHT22;25832;45.490;4.912;2023-07-31T10:40:05;25.80;82.40
40123;DHT22;25832;45.490;4.912;2023-07-31T10:45:06;25.90;82.10
40123;DHT22;25832;45.490;4.912;2023-07-31T10:47:44;26.00;81.20
40123;DHT22;25832;45.490;4.912;2023-07-31T10:52:39;26.10;83.00
40123;DHT22;25832;45.490;4.912;2023-07-31T10:57:53;26.10;80.10
40123;DHT22;25832;45.490;4.912;2023-07-31T11:00:27;26.30;83.40
40123;DHT22;25832;45.490;4.912;2023-07-31T11:08:18;26.50;80.70
40123;DHT22;25832;45.490;4.912;2023-07-31T11:10:45;26.50;80.30
40123;DHT22;25832;45.490;4.912;2023-07-31T11:13:11;26.60;80.50
40123;DHT22;25832;45.490;4.912;2023-07-31T11:15:37;26.70;79.00
40123;DHT22;25832;45.490;4.912;2023-07-31T11:18:04;26.70;80.10
40123;DHT22;25832;45.490;4.912;2023-07-31T11:20:32;26.60;78.40
40123;DHT22;25832;45.490;4.912;2023-07-31T11:23:02;26.50;78.30
40123;DHT22;25832;45.490;4.912;2023-07-31T11:25:31;26.60;81.60
40123;DHT22;25832;45.490;4.912;2023-07-31T11:28:08;26.60;78.70
40123;DHT22;25832;45.490;4.912;2023-07-31T11:30:34;26.30;77.70
40123;DHT22;25832;45.490;4.912;2023-07-31T11:33:05;26.30;78.40
40123;DHT22;25832;45.490;4.912;2023-07-31T11:35:35;26.30;80.20
40123;DHT22;25832;45.490;4.912;2023-07-31T11:38:02;26.40;78.40
40123;DHT22;25832;45.490;4.912;2023-07-31T11:40:28;26.60;81.20
40123;DHT22;25832;45.490;4.912;2023-07-31T11:42:59;26.70;77.70
40123;DHT22;25832;45.490;4.912;2023-07-31T11:45:30;26.70;79.20
40123;DHT22;25832;45.490;4.912;2023-07-31T11:47:56;26.80;79.90
40123;DHT22;25832;45.490;4.912;2023-07-31T11:50:23;26.60;78.00
40123;DHT22;25832;45.490;4.912;2023-07-31T11:52:52;26.50;78.40
40123;DHT22;25832;45.490;4.912;2023-07-31T11:55:18;26.40;77.00
40123;DHT22;25832;45.490;4.912;2023-07-31T11:57:44;26.50;78.50
40123;DHT22;25832;45.490;4.912;2023-07-31T12:00:11;26.60;78.40
40123;DHT22;25832;45.490;4.912;2023-07-31T12:02:39;26.70;77.00
40123;DHT22;25832;45.490;4.912;2023-07-31T12:05:09;26.80;77.40
40123;DHT22;25832;45.490;4.912;2023-07-31T12:07:48;26.90;76.90
40123;DHT22;25832;45.490;4.912;2023-07-31T12:10:28;27.10;76.90
40123;DHT22;25832;45.490;4.912;2023-07-31T12:13:08;27.10;78.50
40123;DHT22;25832;45.490;4.912;2023-07-31T12:15:55;27.00;77.50
40123;DHT22;25832;45.490;4.912;2023-07-31T12:18:24;26.80;77.50
40123;DHT22;25832;45.490;4.912;2023-07-31T12:21:00;26.80;78.30
40123;DHT22;25832;45.490;4.912;2023-07-31T12:23:28;27.10;76.80
40123;DHT22;25832;45.490;4.912;2023-07-31T12:26:23;27.00;78.70
40123;DHT22;25832;45.490;4.912;2023-07-31T12:28:50;27.20;77.10
40123;DHT22;25832;45.490;4.912;2023-07-31T12:31:18;27.40;77.40
40123;DHT22;25832;45.490;4.912;2023-07-31T12:33:45;27.60;76.20
40123;DHT22;25832;45.490;4.912;2023-07-31T12:36:16;27.70;77.30
40123;DHT22;25832;45.490;4.912;2023-07-31T12:38:43;27.80;77.30
40123;DHT22;25832;45.490;4.912;2023-07-31T12:41:09;27.90;76.30
40123;DHT22;25832;45.490;4.912;2023-07-31T12:43:36;27.90;75.80
40123;DHT22;25832;45.490;4.912;2023-07-31T12:46:02;27.50;74.60
40123;DHT22;25832;45.490;4.912;2023-07-31T12:48:28;27.20;79.20
40123;DHT22;25832;45.490;4.912;2023-07-31T12:50:54;27.40;76.00
40123;DHT22;25832;45.490;4.912;2023-07-31T12:53:20;27.50;75.90
40123;DHT22;25832;45.490;4.912;2023-07-31T12:55:46;27.60;75.90
40123;DHT22;25832;45.490;4.912;2023-07-31T12:58:12;27.40;74.50
40123;DHT22;25832;45.490;4.912;2023-07-31T13:00:37;27.50;75.70
40123;DHT22;25832;45.490;4.912;2023-07-31T13:03:03;27.70;77.60
40123;DHT22;25832;45.490;4.912;2023-07-31T13:05:29;27.50;74.90
40123;DHT22;25832;45.490;4.912;2023-07-31T13:07:55;27.50;75.30
40123;DHT22;25832;45.490;4.912;2023-07-31T13:10:22;27.40;75.20
40123;DHT22;25832;45.490;4.912;2023-07-31T13:12:48;27.30;75.60
40123;DHT22;25832;45.490;4.912;2023-07-31T13:15:14;27.10;74.40
40123;DHT22;25832;45.490;4.912;2023-07-31T13:17:39;27.10;76.50
40123;DHT22;25832;45.490;4.912;2023-07-31T13:20:05;27.20;74.80
40123;DHT22;25832;45.490;4.912;2023-07-31T13:22:31;27.20;76.60
40123;DHT22;25832;45.490;4.912;2023-07-31T13:24:57;27.40;75.30
40123;DHT22;25832;45.490;4.912;2023-07-31T13:27:23;27.40;76.30
40123;DHT22;25832;45.490;4.912;2023-07-31T13:29:52;27.50;76.10
40123;DHT22;25832;45.490;4.912;2023-07-31T13:32:19;27.70;76.40
40123;DHT22;25832;45.490;4.912;2023-07-31T13:34:46;27.90;77.80
40123;DHT22;25832;45.490;4.912;2023-07-31T13:37:12;28.00;75.40
40123;DHT22;25832;45.490;4.912;2023-07-31T13:39:38;28.00;77.20
40123;DHT22;25832;45.490;4.912;2023-07-31T13:42:06;28.10;73.30
40123;DHT22;25832;45.490;4.912;2023-07-31T13:44:34;28.10;75.20
40123;DHT22;25832;45.490;4.912;2023-07-31T13:46:59;28.30;74.40
40123;DHT22;25832;45.490;4.912;2023-07-31T13:49:26;28.30;73.60
40123;DHT22;25832;45.490;4.912;2023-07-31T13:51:51;28.30;73.50
40123;DHT22;25832;45.490;4.912;2023-07-31T13:54:17;28.20;74.70
40123;DHT22;25832;45.490;4.912;2023-07-31T13:56:43;28.20;74.20
40123;DHT22;25832;45.490;4.912;2023-07-31T13:59:10;28.30;74.80
40123;DHT22;25832;45.490;4.912;2023-07-31T14:01:36;28.50;74.30
40123;DHT22;25832;45.490;4.912;2023-07-31T14:04:01;28.50;72.80
40123;DHT22;25832;45.490;4.912;2023-07-31T14:06:27;28.50;75.30
40123;DHT22;25832;45.490;4.912;2023-07-31T14:08:53;28.70;74.00
40123;DHT22;25832;45.490;4.912;2023-07-31T14:11:19;29.00;75.60
40123;DHT22;25832;45.490;4.912;2023-07-31T14:13:44;29.10;73.00
40123;DHT22;25832;45.490;4.912;2023-07-31T14:16:10;29.30;72.50
40123;DHT22;25832;45.490;4.912;2023-07-31T14:18:36;29.40;72.90
40123;DHT22;25832;45.490;4.912;2023-07-31T14:21:01;29.30;74.40
40123;DHT22;25832;45.490;4.912;2023-07-31T14:23:27;29.30;73.30
40123;DHT22;25832;45.490;4.912;2023-07-31T14:25:52;29.20;71.40
40123;DHT22;25832;45.490;4.912;2023-07-31T14:28:18;29.00;73.20
40123;DHT22;25832;45.490;4.912;2023-07-31T14:30:44;28.90;73.00
40123;DHT22;25832;45.490;4.912;2023-07-31T14:33:09;28.60;73.40
40123;DHT22;25832;45.490;4.912;2023-07-31T14:35:35;28.50;74.20
40123;DHT22;25832;45.490;4.912;2023-07-31T14:38:01;28.50;73.70
40123;DHT22;25832;45.490;4.912;2023-07-31T14:40:27;28.50;73.30
40123;DHT22;25832;45.490;4.912;2023-07-31T14:42:53;28.60;73.20
40123;DHT22;25832;45.490;4.912;2023-07-31T14:45:18;28.70;72.30
40123;DHT22;25832;45.490;4.912;2023-07-31T14:47:44;28.60;73.50
40123;DHT22;25832;45.490;4.912;2023-07-31T14:50:10;28.70;71.70
40123;DHT22;25832;45.490;4.912;2023-07-31T14:52:36;28.60;71.20
40123;DHT22;25832;45.490;4.912;2023-07-31T14:55:02;28.50;72.10
40123;DHT22;25832;45.490;4.912;2023-07-31T14:57:28;28.60;72.30
40123;DHT22;25832;45.490;4.912;2023-07-31T14:59:53;28.50;72.50
40123;DHT22;25832;45.490;4.912;2023-07-31T15:02:19;28.40;72.10
40123;DHT22;25832;45.490;4.912;2023-07-31T15:04:45;28.40;73.00
40123;DHT22;25832;45.490;4.912;2023-07-31T15:07:10;28.50;71.80
40123;DHT22;25832;45.490;4.912;2023-07-31T15:09:36;28.70;72.30
40123;DHT22;25832;45.490;4.912;2023-07-31T15:12:02;28.70;72.20
40123;DHT22;25832;45.490;4.912;2023-07-31T15:14:27;29.00;73.10
40123;DHT22;25832;45.490;4.912;2023-07-31T15:16:54;29.30;73.90
40123;DHT22;25832;45.490;4.912;2023-07-31T15:19:20;29.30;70.20
40123;DHT22;25832;45.490;4.912;2023-07-31T15:21:45;29.30;70.90
40123;DHT22;25832;45.490;4.912;2023-07-31T15:24:11;29.20;71.60
40123;DHT22;25832;45.490;4.912;2023-07-31T15:26:37;29.20;72.20
40123;DHT22;25832;45.490;4.912;2023-07-31T15:29:06;29.20;71.60
40123;DHT22;25832;45.490;4.912;2023-07-31T15:31:38;29.00;70.90
40123;DHT22;25832;45.490;4.912;2023-07-31T15:34:04;29.00;70.30
40123;DHT22;25832;45.490;4.912;2023-07-31T15:36:30;29.00;72.00
40123;DHT22;25832;45.490;4.912;2023-07-31T15:38:56;28.90;71.90
40123;DHT22;25832;45.490;4.912;2023-07-31T15:41:22;29.00;70.90
40123;DHT22;25832;45.490;4.912;2023-07-31T15:43:49;28.90;71.10
40123;DHT22;25832;45.490;4.912;2023-07-31T15:46:14;28.90;70.30
40123;DHT22;25832;45.490;4.912;2023-07-31T15:48:40;28.90;70.10
40123;DHT22;25832;45.490;4.912;2023-07-31T15:51:06;29.00;71.50
40123;DHT22;25832;45.490;4.912;2023-07-31T15:53:31;28.90;71.10